Time;durP1;ratioP1;P1;durP2;ratioP2;P2;SDS_P1;SDS_P2;PMS_P1;PMS_P2;Temp;Humidity;BMP_temperature;BMP_pressure;BME280_temperature;BME280_humidity;BME280_pressure;Samples;Min_cycle;Max_cycle;Signal;HPM_P1;HPM_P2
2021/03/05 00:01:19;;;;;;;21.45;5.88;;;5.20;91.90;;;5.82;73.51;101118.81;5077250;28;20076;-81
2021/03/05 00:03:46;;;;;;;25.63;5.93;;;5.20;92.00;;;5.81;73.97;101112.56;5077736;28;20102;-81
2021/03/05 00:06:14;;;;;;;24.92;5.72;;;5.20;92.40;;;5.80;73.21;101116.22;5071890;28;20051;-80
2021/03/05 00:08:41;;;;;;;18.58;5.20;;;5.20;91.60;;;5.79;73.00;101119.94;5056489;28;20060;-81
2021/03/05 00:11:08;;;;;;;22.60;5.47;;;5.20;91.60;;;5.80;73.65;101127.03;5056683;28;20113;-80
2021/03/05 00:13:34;;;;;;;22.65;6.13;;;5.20;92.20;;;5.78;73.45;101134.44;5056207;28;20519;-81
2021/03/05 00:16:01;;;;;;;21.55;4.85;;;5.20;92.40;;;5.76;73.97;101133.72;5056627;28;20101;-80
2021/03/05 00:18:28;;;;;;;23.42;5.50;;;5.20;92.40;;;5.83;73.23;101132.16;5054518;28;20059;-80
2021/03/05 00:20:56;;;;;;;23.40;6.28;;;5.20;91.50;;;5.83;73.20;101129.47;5056160;28;20061;-80
2021/03/05 00:23:24;;;;;;;23.70;6.32;;;5.30;91.90;;;5.81;72.86;101127.91;5057448;28;20117;-81
2021/03/05 00:25:51;;;;;;;22.58;5.57;;;5.20;91.60;;;5.81;73.26;101123.34;5056962;28;20065;-80
2021/03/05 00:28:20;;;;;;;20.77;5.50;;;5.30;91.90;;;5.84;72.92;101133.88;5056811;28;20084;-80
2021/03/05 00:30:47;;;;;;;24.70;5.70;;;5.30;91.40;;;5.83;73.12;101132.16;5055641;28;20051;-81
2021/03/05 00:33:14;;;;;;;21.38;5.88;;;5.30;91.40;;;5.86;73.07;101131.91;5055820;28;20045;-81
2021/03/05 00:35:40;;;;;;;29.40;7.35;;;5.30;91.10;;;5.85;72.66;101140.13;5056067;28;20215;-81
2021/03/05 00:38:07;;;;;;;26.23;5.55;;;5.30;90.80;;;5.86;72.19;101133.72;5054726;28;20055;-81
2021/03/05 00:40:35;;;;;;;23.38;5.38;;;5.30;90.20;;;5.88;72.66;101138.03;5056186;28;20041;-81
2021/03/05 00:43:01;;;;;;;20.40;5.55;;;5.30;90.40;;;5.86;72.08;101142.72;5056241;28;20140;-81
2021/03/05 00:45:28;;;;;;;21.45;5.28;;;5.30;90.10;;;5.90;72.14;101145.13;5056094;28;20040;-81
2021/03/05 00:47:55;;;;;;;27.85;5.70;;;5.40;90.60;;;5.84;72.84;101138.41;5055480;28;20131;-80
2021/03/05 00:50:22;;;;;;;16.88;5.63;;;5.30;91.00;;;5.79;73.63;101144.25;5054848;28;20056;-80
2021/03/05 00:52:51;;;;;;;30.05;8.07;;;5.30;91.60;;;5.85;73.28;101153.66;5056280;28;20040;-80
2021/03/05 00:55:21;;;;;;;28.60;9.25;;;5.30;91.20;;;5.84;73.54;101144.66;5071931;28;20049;-81
2021/03/05 00:57:51;;;;;;;33.53;9.90;;;5.30;91.60;;;5.88;73.50;101146.13;5054719;28;20060;-80
2021/03/05 01:00:21;;;;;;;27.58;8.32;;;5.30;91.50;;;5.85;73.03;101151.78;5054897;28;20060;-81
2021/03/05 01:02:48;;;;;;;24.67;8.25;;;5.40;91.30;;;5.84;73.51;101155.47;5056779;28;20049;-81
2021/03/05 01:05:15;;;;;;;29.23;8.20;;;5.30;91.70;;;5.84;73.77;101165.44;5054728;28;20775;-81
2021/03/05 01:07:41;;;;;;;23.90;8.40;;;5.30;91.80;;;5.83;73.85;101164.59;5054603;28;20191;-81
2021/03/05 01:10:14;;;;;;;33.45;9.00;;;5.30;92.10;;;5.82;74.00;101156.63;5069402;28;20056;-80
2021/03/05 01:12:41;;;;;;;39.35;9.55;;;5.30;92.10;;;5.84;74.22;101157.31;5054918;28;20127;-81
2021/03/05 01:15:10;;;;;;;38.60;9.27;;;5.30;92.70;;;5.82;74.54;101164.72;5054944;28;20088;-81
2021/03/05 01:17:37;;;;;;;26.50;8.80;;;5.30;92.80;;;5.76;74.60;101163.41;5069649;28;20063;-80
2021/03/05 01:20:11;;;;;;;27.70;9.13;;;5.30;92.70;;;5.77;74.48;101159.75;5073902;28;20067;-80
2021/03/05 01:22:38;;;;;;;34.85;10.15;;;5.30;92.90;;;5.78;74.75;101166.00;5067431;28;20122;-81
2021/03/05 01:25:08;;;;;;;21.77;8.10;;;5.30;93.00;;;5.75;74.55;101164.44;5074067;28;20450;-80
2021/03/05 01:27:35;;;;;;;27.38;9.70;;;5.30;93.00;;;5.73;75.04;101171.81;5075238;28;20451;-80
2021/03/05 01:30:03;;;;;;;28.65;9.23;;;5.30;93.30;;;5.76;74.83;101166.13;5067781;28;20543;-81
2021/03/05 01:32:33;;;;;;;37.53;10.87;;;5.30;93.00;;;5.81;75.08;101171.13;5075164;28;20068;-81
2021/03/05 01:34:59;;;;;;;25.92;10.07;;;5.30;93.30;;;5.83;74.90;101170.00;5074738;28;20098;-81
2021/03/05 01:37:27;;;;;;;31.45;11.45;;;5.40;93.10;;;5.85;74.73;101173.41;5074053;28;20048;-81
2021/03/05 01:39:53;;;;;;;33.72;11.48;;;5.40;92.90;;;5.85;74.72;101177.97;5075427;28;20100;-81
2021/03/05 01:42:20;;;;;;;41.53;13.63;;;5.40;92.50;;;5.87;75.05;101175.97;5068181;28;20049;-80
2021/03/05 01:44:47;;;;;;;45.53;15.60;;;5.40;92.80;;;5.89;74.65;101179.38;5074834;28;20435;-81
2021/03/05 01:47:14;;;;;;;46.78;16.35;;;5.40;92.70;;;5.85;74.34;101178.81;5074241;28;20393;-81
2021/03/05 01:49:41;;;;;;;35.97;15.80;;;5.40;92.30;;;5.85;74.80;101183.38;5074702;28;20052;-80
2021/03/05 01:52:08;;;;;;;34.97;15.38;;;5.40;92.50;;;5.89;74.66;101179.38;5074398;28;20499;-81
2021/03/05 01:54:35;;;;;;;32.25;14.38;;;5.40;92.70;;;5.90;74.49;101182.94;5075358;28;20635;-80
2021/03/05 01:57:02;;;;;;;32.22;14.13;;;5.50;92.60;;;5.91;74.33;101188.22;5073840;28;20079;-81
2021/03/05 01:59:33;;;;;;;32.65;14.32;;;5.50;92.30;;;5.87;74.60;101182.22;5074712;28;20427;-80
2021/03/05 02:02:00;;;;;;;30.08;14.63;;;5.40;92.00;;;5.87;74.63;101189.47;5074348;28;20071;-80
2021/03/05 02:04:27;;;;;;;29.25;13.40;;;5.50;92.20;;;5.87;74.82;101192.19;5075608;28;20139;-81
2021/03/05 02:06:54;;;;;;;31.85;13.32;;;5.50;92.80;;;5.90;73.93;101185.63;5075312;28;20785;-81
2021/03/05 02:09:21;;;;;;;31.98;13.75;;;5.50;91.90;;;5.93;74.15;101194.31;5073347;28;20056;-81
2021/03/05 02:11:48;;;;;;;27.95;12.80;;;5.50;91.70;;;5.94;73.80;101190.66;5074856;28;20060;-81
2021/03/05 02:14:15;;;;;;;28.00;13.18;;;5.50;91.30;;;5.95;74.06;101199.59;5076049;28;20086;-81
2021/03/05 02:16:56;;;;;;;30.77;14.98;;;5.50;91.60;;;5.96;73.93;101195.91;5076140;28;20413;-81
2021/03/05 02:20:05;;;;;;;25.88;12.90;;;5.60;91.40;;;5.95;73.68;101200.47;5075456;28;20173;-81
2021/03/05 02:23:13;;;;;;;28.88;14.70;;;5.50;91.60;;;5.96;73.31;101204.03;5075173;28;20044;-81
2021/03/05 02:26:10;;;;;;;25.58;13.80;;;5.50;90.70;;;5.96;72.79;101201.31;5053439;28;20135;-80
2021/03/05 02:29:46;;;;;;;26.92;14.07;;;5.50;90.10;;;5.97;72.88;101197.63;5075242;28;20532;-81
2021/03/05 02:32:19;;;;;;;24.13;13.73;;;5.50;89.90;;;5.92;72.35;101199.84;5011693;28;20717;-80
2021/03/05 02:34:49;;;;;;;25.60;14.20;;;5.50;90.00;;;5.92;72.12;101203.44;5012902;28;20069;-80
2021/03/05 02:37:18;;;;;;;24.13;13.93;;;5.50;89.80;;;5.92;71.78;101211.53;5050178;28;20091;-80
2021/03/05 02:39:54;;;;;;;23.40;13.63;;;5.40;89.20;;;5.93;71.52;101207.84;5073669;28;20052;-80
2021/03/05 02:42:26;;;;;;;23.83;13.15;;;5.40;89.10;;;5.91;71.71;101219.78;5074746;28;20072;-80
2021/03/05 02:45:01;;;;;;;23.60;14.15;;;5.50;89.50;;;5.93;70.96;101223.19;5074316;28;20136;-80
2021/03/05 02:47:32;;;;;;;25.02;13.40;;;5.40;88.50;;;5.91;70.91;101225.19;5076234;28;20040;-81
2021/03/05 02:49:59;;;;;;;23.58;13.07;;;5.40;88.00;;;5.91;70.65;101222.47;5074619;28;20051;-80
2021/03/05 02:52:28;;;;;;;23.30;13.15;;;5.40;88.10;;;5.89;70.37;101233.41;5073578;28;20083;-81
2021/03/05 02:54:59;;;;;;;24.50;13.07;;;5.40;87.90;;;5.88;70.56;101229.88;5075437;28;20108;-81
2021/03/05 02:57:29;;;;;;;24.08;13.55;;;5.40;87.80;;;5.88;70.82;101229.88;5075593;28;20096;-81
2021/03/05 02:59:58;;;;;;;23.20;13.63;;;5.40;88.20;;;5.81;71.55;101233.25;5075738;28;20070;-81
2021/03/05 03:02:27;;;;;;;23.55;13.50;;;5.40;89.00;;;5.85;70.66;101231.97;5074834;28;20055;-81
2021/03/05 03:04:58;;;;;;;23.33;13.10;;;5.30;88.40;;;5.84;71.27;101239.22;5075378;28;20052;-81
2021/03/05 03:07:25;;;;;;;22.35;13.90;;;5.30;89.00;;;5.85;70.39;101238.22;5073947;28;20138;-81
2021/03/05 03:09:52;;;;;;;23.25;13.77;;;5.30;87.90;;;5.84;70.91;101236.50;5074809;28;20040;-81
2021/03/05 03:12:22;;;;;;;21.17;12.85;;;5.30;88.60;;;5.78;71.38;101237.06;5075379;28;20135;-80
2021/03/05 03:14:50;;;;;;;23.13;14.10;;;5.20;89.40;;;5.81;71.50;101252.16;5074884;28;20132;-80
2021/03/05 03:17:18;;;;;;;23.08;14.10;;;5.20;89.30;;;5.81;70.89;101247.59;5073850;28;20109;-80
2021/03/05 03:19:49;;;;;;;28.75;15.40;;;5.30;88.60;;;5.79;71.08;101244.19;5075116;28;20080;-80
2021/03/05 03:22:18;;;;;;;27.00;14.90;;;5.30;89.20;;;5.80;71.22;101259.38;5074964;28;20062;-81
2021/03/05 03:24:46;;;;;;;23.75;14.55;;;5.30;88.90;;;5.80;71.67;101259.38;5074030;28;20059;-81
2021/03/05 03:27:12;;;;;;;23.20;14.32;;;5.30;89.40;;;5.82;72.07;101259.25;5074474;28;20052;-81
2021/03/05 03:29:41;;;;;;;23.30;14.70;;;5.30;89.60;;;5.79;72.24;101263.09;5075028;28;20493;-81
2021/03/05 03:32:11;;;;;;;25.27;14.77;;;5.30;90.40;;;5.80;72.05;101263.94;5074903;28;20049;-81
2021/03/05 03:34:38;;;;;;;18.75;11.90;;;5.30;90.20;;;5.80;71.11;101272.03;5078840;28;20049;-81
2021/03/05 03:37:05;;;;;;;22.73;12.85;;;5.30;88.20;;;5.79;69.57;101267.66;5077831;28;20044;-80
2021/03/05 03:39:34;;;;;;;21.70;12.93;;;5.20;87.10;;;5.77;69.90;101272.28;5075854;28;20056;-80
2021/03/05 03:42:03;;;;;;;22.42;13.25;;;5.20;87.60;;;5.75;70.56;101269.75;5078477;28;20100;-81
2021/03/05 03:44:30;;;;;;;21.77;12.35;;;5.20;88.50;;;5.73;70.87;101277.13;5077800;28;20051;-81
2021/03/05 03:46:58;;;;;;;22.02;12.82;;;5.20;88.60;;;5.69;71.13;101275.66;5077198;28;20797;-80
2021/03/05 03:49:36;;;;;;;20.48;12.43;;;5.20;88.90;;;5.68;71.38;101279.38;5077739;28;20058;-80
2021/03/05 03:52:09;;;;;;;20.77;12.27;;;5.20;88.90;;;5.74;70.76;101291.50;5077700;28;20049;-81
2021/03/05 03:54:38;;;;;;;20.17;11.98;;;5.20;88.50;;;5.73;70.92;101282.53;5077743;28;20068;-80
2021/03/05 03:57:08;;;;;;;21.27;12.23;;;5.30;88.60;;;5.73;69.99;101292.47;5077055;28;20125;-80
2021/03/05 03:59:37;;;;;;;21.10;10.80;;;5.20;87.50;;;5.74;69.50;101294.19;5077775;28;20049;-80
2021/03/05 04:02:07;;;;;;;17.48;10.73;;;5.20;86.90;;;5.73;69.99;101292.47;5077230;28;20052;-81
2021/03/05 04:04:37;;;;;;;21.40;11.10;;;5.20;87.90;;;5.69;70.45;101297.28;5076093;28;20051;-81
2021/03/05 04:07:05;;;;;;;18.73;11.18;;;5.10;88.30;;;5.64;71.08;101300.38;5077320;28;20131;-80
2021/03/05 04:09:35;;;;;;;16.25;9.82;;;5.10;88.80;;;5.71;69.51;101299.84;5076274;28;20045;-81
2021/03/05 04:12:03;;;;;;;14.80;9.13;;;5.10;87.40;;;5.68;69.19;101309.94;5077831;28;20122;-80
2021/03/05 04:14:31;;;;;;;15.82;9.07;;;5.10;86.70;;;5.68;69.13;101307.22;5065285;28;20060;-81
2021/03/05 04:16:58;;;;;;;14.98;8.90;;;5.10;86.80;;;5.65;69.27;101320.13;5056639;28;20060;-81
2021/03/05 04:19:26;;;;;;;17.60;9.18;;;5.10;87.10;;;5.60;69.58;101325.09;5057177;28;20048;-81
2021/03/05 04:21:53;;;;;;;12.90;8.18;;;5.00;87.70;;;5.61;69.55;101332.19;5057413;28;20097;-80
2021/03/05 04:24:20;;;;;;;13.77;7.60;;;5.00;87.10;;;5.61;69.13;101330.34;5061905;28;20072;-80
2021/03/05 04:26:47;;;;;;;12.52;7.75;;;5.00;87.00;;;5.61;69.37;101326.81;5077339;28;20041;-80
2021/03/05 04:29:15;;;;;;;12.95;6.78;;;5.00;87.30;;;5.56;69.83;101332.59;5076780;28;20125;-80
2021/03/05 04:31:42;;;;;;;13.85;6.90;;;5.00;87.70;;;5.52;68.99;101343.78;5075336;28;20044;-80
2021/03/05 04:34:09;;;;;;;11.07;6.78;;;4.90;87.10;;;5.55;68.19;101351.63;5076123;28;20180;-80
2021/03/05 04:36:35;;;;;;;12.55;5.75;;;4.90;86.10;;;5.52;67.31;101346.50;5076498;28;20048;-80
2021/03/05 04:39:03;;;;;;;10.98;5.53;;;4.90;85.40;;;5.43;68.38;101350.84;5075672;28;20053;-80
2021/03/05 04:41:30;;;;;;;9.45;5.43;;;4.80;86.30;;;5.45;68.17;101355.13;5076833;28;20036;-81
2021/03/05 04:43:58;;;;;;;9.80;5.35;;;4.80;86.40;;;5.42;67.30;101358.06;5074999;28;20119;-80
2021/03/05 04:46:27;;;;;;;8.63;4.85;;;4.80;85.10;;;5.40;66.92;101351.09;5076996;28;20049;-81
2021/03/05 04:48:54;;;;;;;8.35;4.38;;;4.70;84.80;;;5.42;66.06;101363.47;5076786;28;20183;-80
2021/03/05 04:51:20;;;;;;;10.80;4.28;;;4.70;83.70;;;5.38;66.27;101362.00;5076515;28;20137;-81
2021/03/05 04:53:47;;;;;;;10.05;4.20;;;4.70;84.40;;;5.40;65.21;101362.75;5076518;28;20049;-81
2021/03/05 04:56:14;;;;;;;8.73;4.10;;;4.70;82.80;;;5.36;66.43;101365.84;5075479;28;20044;-81
2021/03/05 04:58:41;;;;;;;8.40;3.65;;;4.60;84.60;;;5.37;65.05;101372.94;5075261;28;20567;-81
2021/03/05 05:01:07;;;;;;;6.10;3.50;;;4.60;83.20;;;5.30;65.73;101375.31;5075191;28;20106;-80
2021/03/05 05:03:35;;;;;;;6.47;3.63;;;4.60;83.90;;;5.26;66.17;101379.25;5076736;28;20051;-80
2021/03/05 05:06:02;;;;;;;10.25;3.50;;;4.50;84.40;;;5.24;66.48;101386.63;5076080;28;20416;-81
2021/03/05 05:08:28;;;;;;;7.88;3.60;;;4.50;84.90;;;5.23;65.86;101383.03;5074264;28;20072;-81
2021/03/05 05:10:55;;;;;;;7.38;3.70;;;4.40;84.20;;;5.23;64.85;101393.84;5075739;28;20051;-80
2021/03/05 05:13:22;;;;;;;9.18;3.75;;;4.40;83.30;;;5.18;64.01;101396.09;5074844;28;20132;-81
2021/03/05 05:15:49;;;;;;;8.90;3.67;;;4.40;82.20;;;5.16;63.87;101397.19;5076223;28;20051;-80
2021/03/05 05:18:15;;;;;;;7.03;3.05;;;4.40;82.10;;;5.16;63.42;101402.59;5074636;28;20433;-80
2021/03/05 05:20:43;;;;;;;9.27;3.38;;;4.30;81.30;;;5.09;64.85;101403.09;5076363;28;20121;-81
2021/03/05 05:23:10;;;;;;;9.18;3.15;;;4.20;83.30;;;5.02;64.39;101407.28;5077218;28;20040;-80
2021/03/05 05:25:36;;;;;;;7.50;2.90;;;4.20;83.30;;;5.05;63.81;101412.44;5076896;28;20109;-80
2021/03/05 05:28:04;;;;;;;11.32;3.15;;;4.20;82.00;;;5.00;62.13;101409.25;5075439;28;20057;-80
2021/03/05 05:30:31;;;;;;;6.88;2.80;;;4.10;80.60;;;4.98;62.34;101426.56;5076579;28;20066;-80
2021/03/05 05:32:58;;;;;;;6.80;2.50;;;4.00;80.60;;;4.93;61.81;101424.25;5072864;28;20045;-84
2021/03/05 05:35:24;;;;;;;5.68;2.17;;;4.00;80.70;;;4.88;62.00;101427.31;5069728;28;20097;-84
2021/03/05 05:37:52;;;;;;;6.88;2.45;;;3.90;80.50;;;4.88;61.16;101437.25;5069294;28;20143;-84
2021/03/05 05:40:19;;;;;;;8.68;2.53;;;3.80;79.90;;;4.89;59.93;101433.53;5070780;28;20051;-84
2021/03/05 05:42:48;;;;;;;7.68;2.38;;;3.80;79.00;;;4.85;61.11;101442.88;5070612;28;20049;-84
2021/03/05 05:45:15;;;;;;;8.40;2.97;;;3.70;80.50;;;4.83;61.17;101443.00;5070427;28;20050;-84
2021/03/05 05:47:44;;;;;;;6.57;2.30;;;3.70;80.70;;;4.73;61.10;101438.47;5070494;28;20048;-85
2021/03/05 05:50:11;;;;;;;5.70;2.30;;;3.70;80.20;;;4.68;60.62;101452.31;5071076;28;20040;-84
2021/03/05 05:52:40;;;;;;;6.03;2.25;;;3.50;80.00;;;4.64;61.20;101456.25;5071405;28;20277;-85
2021/03/05 05:55:10;;;;;;;7.25;2.47;;;3.40;81.00;;;4.67;60.51;101456.00;5069319;28;20538;-85
2021/03/05 05:57:39;;;;;;;7.53;2.50;;;3.40;80.10;;;4.64;60.32;101462.50;5071435;28;20040;-86
2021/03/05 06:00:11;;;;;;;8.32;2.53;;;3.40;79.80;;;4.55;60.39;101455.16;5068845;28;20048;-86
2021/03/05 06:02:40;;;;;;;9.25;2.70;;;3.20;80.30;;;4.48;60.70;101456.63;5070613;28;20083;-85
2021/03/05 06:05:09;;;;;;;6.55;2.65;;;3.20;80.90;;;4.45;61.60;101473.03;5070439;28;20040;-85
2021/03/05 06:07:36;;;;;;;8.98;2.63;;;3.20;81.60;;;4.37;61.34;101470.09;5069544;28;20044;-84
2021/03/05 06:10:05;;;;;;;7.10;2.95;;;3.10;81.30;;;4.41;60.82;101475.09;5069640;28;20520;-85
2021/03/05 06:12:33;;;;;;;6.30;2.63;;;3.10;80.60;;;4.43;60.28;101481.22;5069782;28;20613;-84
2021/03/05 06:15:00;;;;;;;7.47;2.50;;;3.10;80.50;;;4.40;60.35;101480.59;5070067;28;20044;-84
2021/03/05 06:17:44;;;;;;;8.77;2.55;;;3.00;80.70;;;4.36;60.97;101476.44;5070311;28;20048;-84
2021/03/05 06:20:13;;;;;;;7.43;2.92;;;3.00;81.50;;;4.27;60.84;101492.38;5070663;28;20123;-84
2021/03/05 06:22:40;;;;;;;7.32;2.60;;;3.00;81.20;;;4.28;60.38;101486.00;5071173;28;20178;-84
2021/03/05 06:25:10;;;;;;;6.45;2.17;;;3.00;80.80;;;4.30;60.64;101497.53;5066673;28;20163;-84
2021/03/05 06:27:39;;;;;;;6.35;2.53;;;3.00;80.90;;;4.22;60.91;101499.94;5058709;28;20143;-84
2021/03/05 06:30:08;;;;;;;6.40;2.97;;;3.00;80.90;;;4.24;60.49;101511.44;5068413;28;20044;-84
2021/03/05 06:32:40;;;;;;;10.80;2.75;;;3.00;80.60;;;4.24;60.55;101514.16;5052528;28;20134;-82
2021/03/05 06:35:10;;;;;;;9.02;2.50;;;3.00;80.40;;;4.23;60.67;101523.22;5047988;28;20420;-83
2021/03/05 06:37:45;;;;;;;6.07;2.70;;;3.00;81.00;;;4.24;61.21;101529.47;5047756;28;20128;-82
2021/03/05 06:40:14;;;;;;;6.85;2.28;;;2.90;81.70;;;4.14;61.83;101537.41;5048183;28;20770;-83
2021/03/05 06:42:53;;;;;;;6.38;2.50;;;2.90;82.00;;;4.10;61.98;101546.69;5046631;28;20069;-83
2021/03/05 06:45:22;;;;;;;6.90;2.70;;;2.90;82.70;;;4.15;62.03;101547.22;5048282;28;20045;-82
2021/03/05 06:48:05;;;;;;;9.10;2.42;;;3.00;82.70;;;4.11;61.76;101554.66;5047828;28;20424;-82
2021/03/05 06:50:36;;;;;;;9.02;2.95;;;2.90;82.20;;;4.12;60.96;101560.91;5048441;28;20044;-83
2021/03/05 06:53:20;;;;;;;6.10;2.70;;;2.90;80.90;;;4.03;61.72;101559.75;5048140;28;20165;-83
2021/03/05 06:55:47;;;;;;;7.05;2.97;;;2.90;82.00;;;4.04;61.38;101569.56;5052876;28;20052;-84
2021/03/05 06:58:14;;;;;;;8.80;2.60;;;2.90;81.60;;;4.04;61.50;101566.88;5066540;28;20135;-83
2021/03/05 07:00:43;;;;;;;5.50;2.55;;;2.90;81.80;;;3.94;63.21;101568.56;5063965;28;20040;-83
2021/03/05 07:03:20;;;;;;;6.38;3.15;;;2.90;82.70;;;4.00;63.00;101572.59;5069153;28;20789;-83
2021/03/05 07:05:53;;;;;;;6.28;2.67;;;2.90;82.80;;;4.00;62.03;101569.91;5064986;28;20135;-83
2021/03/05 07:08:38;;;;;;;11.10;2.83;;;2.90;81.90;;;3.95;62.08;101583.72;5069018;28;20052;-83
2021/03/05 07:11:07;;;;;;;8.55;2.80;;;2.90;81.80;;;3.98;62.21;101588.00;5062332;28;20651;-83
2021/03/05 07:13:49;;;;;;;8.57;2.95;;;2.90;81.70;;;4.00;61.63;101600.41;5051328;28;20128;-83
2021/03/05 07:16:16;;;;;;;11.40;2.90;;;2.90;81.10;;;3.92;62.19;101602.78;5064193;28;20037;-82
2021/03/05 07:18:43;;;;;;;6.70;2.75;;;2.90;81.60;;;3.95;62.18;101615.19;5063883;28;20585;-83
2021/03/05 07:21:10;;;;;;;9.68;2.47;;;2.90;81.80;;;3.96;62.01;101619.59;5057645;28;20068;-83
2021/03/05 07:23:43;;;;;;;7.30;2.38;;;3.00;81.50;;;3.99;61.87;101622.91;5061173;28;20536;-83
2021/03/05 07:26:11;;;;;;;10.05;3.10;;;3.00;80.80;;;3.94;62.46;101625.13;5059785;28;20041;-83
2021/03/05 07:28:45;;;;;;;10.20;2.50;;;3.00;81.10;;;3.94;62.37;101619.72;5059318;28;20163;-83
2021/03/05 07:31:15;;;;;;;7.03;2.38;;;3.00;81.40;;;3.97;62.58;101626.72;5058635;28;20804;-83
2021/03/05 07:33:49;;;;;;;9.13;2.33;;;3.00;81.60;;;3.98;62.41;101634.69;5059615;28;20053;-83
2021/03/05 07:36:17;;;;;;;8.65;2.67;;;3.00;81.20;;;3.92;62.99;101627.91;5061780;28;20171;-82
2021/03/05 07:38:51;;;;;;;6.15;2.60;;;3.00;81.70;;;3.91;62.76;101642.34;5059548;28;20052;-83
2021/03/05 07:41:20;;;;;;;10.93;2.75;;;3.00;81.40;;;3.97;62.44;101642.88;5059575;28;20052;-83
2021/03/05 07:43:48;;;;;;;8.35;2.42;;;3.10;81.40;;;3.96;62.73;101642.00;5062327;28;20113;-83
2021/03/05 07:46:15;;;;;;;7.55;2.83;;;3.20;81.50;;;4.01;62.33;101644.34;5061303;28;20060;-83
2021/03/05 07:48:45;;;;;;;7.82;2.42;;;3.20;80.60;;;4.00;62.05;101661.47;5059985;28;20099;-83
2021/03/05 07:51:13;;;;;;;7.53;2.70;;;3.20;80.80;;;4.05;61.93;101653.91;5060758;28;20048;-82
2021/03/05 07:53:50;;;;;;;9.60;3.60;;;3.20;80.20;;;4.01;62.23;101663.22;5062855;28;20056;-83
2021/03/05 07:56:40;;;;;;;10.15;2.70;;;3.20;80.60;;;4.00;61.28;101674.94;5062485;28;20087;-83
2021/03/05 07:59:07;;;;;;;8.55;2.95;;;3.20;79.40;;;3.98;61.47;101679.59;5062235;28;20114;-83
2021/03/05 08:02:05;;;;;;;11.45;3.03;;;3.20;79.80;;;3.99;61.44;101671.41;5073318;28;20101;-83
2021/03/05 08:05:00;;;;;;;8.27;2.72;;;3.10;80.50;;;4.01;61.40;101682.91;5005064;28;20119;-83
2021/03/05 08:07:29;;;;;;;9.30;3.30;;;3.20;79.90;;;4.06;60.58;101685.28;5056275;28;20048;-83
2021/03/05 08:09:56;;;;;;;10.02;3.78;;;3.20;79.20;;;3.99;61.25;101686.72;5070861;28;20518;-83
2021/03/05 08:12:42;;;;;;;7.78;3.03;;;3.10;79.80;;;4.03;61.91;101688.19;5068503;28;20123;-84
2021/03/05 08:15:25;;;;;;;8.00;3.10;;;3.20;80.20;;;4.06;61.38;101693.38;5058533;28;20789;-83
2021/03/05 08:17:55;;;;;;;9.32;3.90;;;3.40;79.60;;;4.08;62.08;101691.41;5054057;28;20529;-83
2021/03/05 08:20:53;;;;;;;13.05;3.85;;;3.40;79.50;;;4.11;62.94;101692.06;5066028;28;20053;-83
2021/03/05 08:23:20;;;;;;;8.27;3.60;;;3.50;80.30;;;4.14;62.22;101688.25;5053002;28;20080;-82
2021/03/05 08:25:52;;;;;;;10.60;3.60;;;3.50;79.70;;;4.15;62.73;101695.38;5059976;28;20043;-82
2021/03/05 08:28:43;;;;;;;9.23;3.10;;;3.60;80.20;;;4.16;62.08;101694.41;5059938;28;20075;-82
2021/03/05 08:31:38;;;;;;;14.27;3.30;;;3.60;79.60;;;4.20;63.07;101700.41;5065084;28;20044;-82
2021/03/05 08:34:28;;;;;;;9.15;3.10;;;3.70;80.00;;;4.24;63.22;101697.38;5071435;28;20646;-82
2021/03/05 08:36:56;;;;;;;7.53;3.22;;;3.80;79.90;;;4.28;62.52;101704.28;5071289;28;20048;-81
2021/03/05 08:39:29;;;;;;;9.30;3.25;;;3.90;79.40;;;4.31;62.59;101708.56;5068699;28;20489;-82
2021/03/05 08:42:35;;;;;;;8.32;2.97;;;3.90;78.70;;;4.31;62.21;101708.56;5070600;28;20094;-81
2021/03/05 08:45:15;;;;;;;11.93;3.40;;;3.90;78.60;;;4.29;62.75;101711.38;5070133;28;20037;-82
2021/03/05 08:47:44;;;;;;;9.00;3.20;;;3.90;79.10;;;4.33;62.79;101713.84;5057319;28;20564;-81
2021/03/05 08:50:14;;;;;;;8.50;3.42;;;4.20;79.80;;;4.36;62.33;101708.22;5063728;28;20135;-82
2021/03/05 08:52:42;;;;;;;10.00;2.92;;;4.00;78.60;;;4.40;62.40;101712.38;5066653;28;20127;-82
2021/03/05 08:55:10;;;;;;;9.35;3.28;;;4.10;78.80;;;4.41;62.59;101714.97;5062012;28;20103;-82
2021/03/05 08:57:42;;;;;;;6.65;2.97;;;4.20;78.70;;;4.42;62.72;101705.94;5069792;28;20059;-82
2021/03/05 09:00:14;;;;;;;9.13;2.92;;;4.20;79.00;;;4.49;62.79;101709.00;5070542;28;20484;-82
2021/03/05 09:02:42;;;;;;;6.40;2.97;;;4.20;78.70;;;4.51;62.51;101717.84;5070238;28;20049;-83
2021/03/05 09:05:13;;;;;;;8.38;3.30;;;4.30;78.70;;;4.53;62.75;101723.97;5064051;28;20056;-83
2021/03/05 09:07:51;;;;;;;12.43;4.03;;;4.30;78.40;;;4.50;61.66;101724.22;5065895;28;20098;-82
2021/03/05 09:10:18;;;;;;;9.40;3.47;;;4.30;77.50;;;4.50;61.51;101730.47;5066712;28;20300;-82
2021/03/05 09:13:00;;;;;;;7.05;3.05;;;4.20;77.20;;;4.52;61.38;101732.19;5064066;28;20044;-82
2021/03/05 09:15:28;;;;;;;10.13;3.28;;;4.20;77.10;;;4.47;62.12;101732.53;5064101;28;20041;-82
2021/03/05 09:17:59;;;;;;;11.30;3.38;;;4.10;78.80;;;4.49;62.56;101739.53;5065686;28;20056;-82
2021/03/05 09:20:43;;;;;;;11.13;3.67;;;4.10;78.80;;;4.48;61.98;101742.34;5060779;28;20044;-82
2021/03/05 09:23:32;;;;;;;7.15;3.42;;;4.00;78.60;;;4.49;61.63;101744.06;5063637;28;20052;-82
2021/03/05 09:26:03;;;;;;;11.05;3.10;;;4.00;77.70;;;4.53;60.64;101744.69;5065525;28;20048;-82
2021/03/05 09:28:38;;;;;;;12.07;3.97;;;4.10;77.20;;;4.55;60.39;101743.63;5064446;28;20071;-82
2021/03/05 09:31:07;;;;;;;5.82;2.80;;;4.10;76.60;;;4.55;61.34;101743.63;5059728;28;20048;-82
2021/03/05 09:33:36;;;;;;;9.63;3.03;;;4.10;77.80;;;4.55;61.38;101743.63;5066676;28;20401;-82
2021/03/05 09:36:08;;;;;;;9.90;3.55;;;4.20;77.80;;;4.58;61.24;101746.06;5068529;28;20095;-82
2021/03/05 09:38:38;;;;;;;12.65;3.10;;;4.20;77.40;;;4.59;60.10;101750.50;5069730;28;20051;-82
2021/03/05 09:41:17;;;;;;;9.80;3.40;;;4.20;76.10;;;4.58;61.06;101754.16;5069251;28;20072;-82
2021/03/05 09:43:46;;;;;;;10.60;2.80;;;4.30;77.10;;;4.62;59.93;101752.94;5058740;28;20405;-82
2021/03/05 09:46:26;;;;;;;8.23;3.22;;;4.30;75.60;;;4.64;59.66;101758.22;5065106;28;20068;-82
2021/03/05 09:48:55;;;;;;;9.35;2.72;;;4.40;75.10;;;4.67;59.89;101758.84;5065250;28;20177;-82
2021/03/05 09:51:24;;;;;;;10.20;3.42;;;4.40;75.50;;;4.69;59.29;101756.03;5057234;28;20124;-83
2021/03/05 09:53:54;;;;;;;6.95;2.92;;;4.40;74.10;;;4.70;59.12;101753.25;5068955;28;20048;-82
2021/03/05 09:56:23;;;;;;;9.25;3.40;;;4.40;74.60;;;4.72;58.14;101754.94;5067892;28;20048;-82
2021/03/05 09:58:58;;;;;;;7.60;3.25;;;4.40;72.60;;;4.73;57.79;101762.06;5061341;28;20037;-82
2021/03/05 10:01:28;;;;;;;7.55;3.60;;;4.40;73.20;;;4.75;57.99;101757.41;5068483;28;20127;-82
2021/03/05 10:03:56;;;;;;;9.27;3.17;;;4.50;73.50;;;4.69;58.25;101762.28;5069523;28;20123;-83
2021/03/05 10:06:24;;;;;;;8.63;2.70;;;4.40;73.20;;;4.70;58.57;101760.44;5065012;28;20056;-83
2021/03/05 10:09:03;;;;;;;10.40;2.97;;;4.40;74.10;;;4.70;57.68;101757.75;5064689;28;20133;-83
2021/03/05 10:11:35;;;;;;;8.27;2.70;;;4.40;73.40;;;4.68;58.05;101755.19;5070973;28;20418;-83
2021/03/05 10:14:03;;;;;;;7.25;2.35;;;4.40;72.30;;;4.67;57.42;101758.84;5070781;28;20047;-83
2021/03/05 10:16:33;;;;;;;6.60;2.60;;;4.50;72.40;;;4.73;57.44;101756.69;5065851;28;20044;-82
2021/03/05 10:19:05;;;;;;;7.57;2.80;;;4.50;72.60;;;4.74;58.08;101751.19;5066897;28;20044;-82
2021/03/05 10:21:34;;;;;;;8.07;3.00;;;4.60;73.20;;;4.77;57.65;101748.22;5068701;28;20124;-82
2021/03/05 10:24:06;;;;;;;8.60;3.28;;;4.70;72.60;;;4.82;57.01;101764.94;5051922;28;20493;-82
2021/03/05 10:26:34;;;;;;;6.53;2.72;;;4.70;71.80;;;4.87;56.80;101764.56;5048725;28;20037;-82
2021/03/05 10:29:03;;;;;;;8.90;2.70;;;4.80;71.00;;;4.92;56.42;101757.00;5066316;28;20143;-82
2021/03/05 10:31:51;;;;;;;6.78;2.30;;;4.80;69.80;;;4.98;56.30;101772.72;5055690;28;20057;-82
2021/03/05 10:34:28;;;;;;;13.35;3.70;;;4.90;69.70;;;5.00;55.19;101776.16;5056972;28;20041;-82
2021/03/05 10:36:58;;;;;;;5.45;2.67;;;4.90;68.30;;;5.02;56.32;101774.19;5057705;28;20120;-82